sensor_id;sensor_type;location;lat;lon;timestamp;pressure;altitude;pressure_sealevel;temperature;humidity
22775;BME280;11554;51.106;3.684;2022-07-29T00:00:00;101669.5;;;17.16;75.23
22775;BME280;11554;51.106;3.684;2022-07-29T00:05:00;101661.85;;;17.12;74.88
22775;BME280;11554;51.106;3.684;2022-07-29T00:10:00;101657.09000000001;;;17.09;74.87
22775;BME280;11554;51.106;3.684;2022-07-29T00:15:00;101657.12;;;17.04;74.98
22775;BME280;11554;51.106;3.684;2022-07-29T00:20:00;101653.44;;;17.00;75.36
22775;BME280;11554;51.106;3.684;2022-07-29T00:25:00;101648.25;;;16.98;75.67
22775;BME280;11554;51.106;3.684;2022-07-29T00:30:00;101639.48000000001;;;16.93;75.63
22775;BME280;11554;51.106;3.684;2022-07-29T00:35:00;101638.11;;;16.87;76.04
22775;BME280;11554;51.106;3.684;2022-07-29T00:40:00;101632.67;;;16.81;76.62
22775;BME280;11554;51.106;3.684;2022-07-29T00:45:00;101631.69;;;16.72;76.75
22775;BME280;11554;51.106;3.684;2022-07-29T00:50:00;101627.42;;;16.64;76.92
22775;BME280;11554;51.106;3.684;2022-07-29T00:55:00;101630.26999999999;;;16.57;77.15
22775;BME280;11554;51.106;3.684;2022-07-29T01:00:00;101624.28;;;16.49;77.42
22775;BME280;11554;51.106;3.684;2022-07-29T01:05:00;101624.73999999999;;;16.42;77.18
22775;BME280;11554;51.106;3.684;2022-07-29T01:10:00;101618.98;;;16.29;77.6
22775;BME280;11554;51.106;3.684;2022-07-29T01:15:00;101621.79;;;16.23;77.81
22775;BME280;11554;51.106;3.684;2022-07-29T01:20:02;101620.29;;;16.14;78.21
22775;BME280;11554;51.106;3.684;2022-07-29T01:25:05;101622.24;;;16.07;78.56
22775;BME280;11554;51.106;3.684;2022-07-29T01:30:00;101619.3;;;15.95;78.8
22775;BME280;11554;51.106;3.684;2022-07-29T01:35:02;101615.44;;;15.78;79.3
22775;BME280;11554;51.106;3.684;2022-07-29T01:40:00;101614.56;;;15.74;80.06
22775;BME280;11554;51.106;3.684;2022-07-29T01:45:01;101612.51999999999;;;15.67;80.39
22775;BME280;11554;51.106;3.684;2022-07-29T01:50:00;101605.83;;;15.56;80.34
22775;BME280;11554;51.106;3.684;2022-07-29T01:55:02;101597.52;;;15.46;80.88
22775;BME280;11554;51.106;3.684;2022-07-29T02:00:00;101595.65;;;15.35;81.39
22775;BME280;11554;51.106;3.684;2022-07-29T02:05:00;101601.45;;;15.24;81.34
22775;BME280;11554;51.106;3.684;2022-07-29T02:10:00;101598.77;;;15.16;81.9
22775;BME280;11554;51.106;3.684;2022-07-29T02:15:01;101599.84;;;15.10;82.65
22775;BME280;11554;51.106;3.684;2022-07-29T02:20:00;101600.51;;;15.01;82.2
22775;BME280;11554;51.106;3.684;2022-07-29T02:25:00;101594.9;;;14.97;83.01
22775;BME280;11554;51.106;3.684;2022-07-29T02:30:00;101597.86;;;14.91;83.21
22775;BME280;11554;51.106;3.684;2022-07-29T02:35:00;101602.76;;;14.86;83.83
22775;BME280;11554;51.106;3.684;2022-07-29T02:40:00;101595.04;;;14.77;83.74
22775;BME280;11554;51.106;3.684;2022-07-29T02:45:00;101593.08;;;14.67;83.78
22775;BME280;11554;51.106;3.684;2022-07-29T02:50:00;101590.41;;;14.62;84.71
22775;BME280;11554;51.106;3.684;2022-07-29T02:55:01;101595.89;;;14.58;84.69
22775;BME280;11554;51.106;3.684;2022-07-29T03:00:03;101597.64;;;14.49;84.77
22775;BME280;11554;51.106;3.684;2022-07-29T03:05:00;101601.44;;;14.36;84.81
22775;BME280;11554;51.106;3.684;2022-07-29T03:10:00;101596.2;;;14.28;85.54
22775;BME280;11554;51.106;3.684;2022-07-29T03:15:00;101596.65;;;14.29;86.42
22775;BME280;11554;51.106;3.684;2022-07-29T03:20:00;101593.44;;;14.25;86.54
22775;BME280;11554;51.106;3.684;2022-07-29T03:25:07;101596.51;;;14.18;86.79
22775;BME280;11554;51.106;3.684;2022-07-29T03:30:00;101595.58;;;14.13;87.66
22775;BME280;11554;51.106;3.684;2022-07-29T03:35:00;101601.59;;;14.10;87.61
22775;BME280;11554;51.106;3.684;2022-07-29T03:40:00;101608.92;;;14.00;88.1
22775;BME280;11554;51.106;3.684;2022-07-29T03:45:00;101607.15;;;13.95;88.13
22775;BME280;11554;51.106;3.684;2022-07-29T03:50:02;101611.29;;;13.80;86.57
22775;BME280;11554;51.106;3.684;2022-07-29T03:55:00;101606.05;;;13.68;87.57
22775;BME280;11554;51.106;3.684;2022-07-29T04:00:00;101609.11;;;13.59;87.9
22775;BME280;11554;51.106;3.684;2022-07-29T04:05:00;101606.55;;;13.56;88.92
22775;BME280;11554;51.106;3.684;2022-07-29T04:10:00;101613.58;;;13.58;89.61
22775;BME280;11554;51.106;3.684;2022-07-29T04:15:00;101616.83;;;13.53;89.75
22775;BME280;11554;51.106;3.684;2022-07-29T04:20:00;101621.08;;;13.45;88.81
22775;BME280;11554;51.106;3.684;2022-07-29T04:25:00;101623.92;;;13.37;88.96
22775;BME280;11554;51.106;3.684;2022-07-29T04:30:00;101629.85;;;13.36;89.82
22775;BME280;11554;51.106;3.684;2022-07-29T04:35:00;101628.99;;;13.36;88.88
22775;BME280;11554;51.106;3.684;2022-07-29T04:40:00;101626.26000000001;;;13.39;90.15
22775;BME280;11554;51.106;3.684;2022-07-29T04:45:00;101634.03;;;13.49;91.45
22775;BME280;11554;51.106;3.684;2022-07-29T04:50:00;101634.47;;;13.65;91.88
22775;BME280;11554;51.106;3.684;2022-07-29T04:55:00;101638.26000000001;;;13.94;91.7
22775;BME280;11554;51.106;3.684;2022-07-29T05:00:00;101640.44;;;14.84;92.28
22775;BME280;11554;51.106;3.684;2022-07-29T05:05:00;101648.27;;;15.57;90.0
22775;BME280;11554;51.106;3.684;2022-07-29T05:10:00;101645.84;;;16.20;88.81
22775;BME280;11554;51.106;3.684;2022-07-29T05:15:00;101651.53;;;16.69;86.65
22775;BME280;11554;51.106;3.684;2022-07-29T05:20:00;101648.15;;;16.96;84.92
22775;BME280;11554;51.106;3.684;2022-07-29T05:25:00;101647.85;;;16.98;84.0
22775;BME280;11554;51.106;3.684;2022-07-29T05:30:00;101647.01;;;16.99;84.1
22775;BME280;11554;51.106;3.684;2022-07-29T05:35:00;101648.19;;;17.16;84.54
22775;BME280;11554;51.106;3.684;2022-07-29T05:40:00;101658.62;;;17.42;84.56
22775;BME280;11554;51.106;3.684;2022-07-29T05:45:00;101652.76;;;17.82;84.74
22775;BME280;11554;51.106;3.684;2022-07-29T05:50:00;101655.97;;;18.64;81.34
22775;BME280;11554;51.106;3.684;2022-07-29T05:55:00;101657.25;;;19.33;78.93
22775;BME280;11554;51.106;3.684;2022-07-29T06:00:00;101653.75;;;19.95;75.93
22775;BME280;11554;51.106;3.684;2022-07-29T06:05:00;101652.76;;;20.78;74.15
22775;BME280;11554;51.106;3.684;2022-07-29T06:10:00;101663.89;;;21.46;72.61
22775;BME280;11554;51.106;3.684;2022-07-29T06:15:00;101671.73;;;21.71;68.85
22775;BME280;11554;51.106;3.684;2022-07-29T06:20:00;101672.86;;;21.73;66.56
22775;BME280;11554;51.106;3.684;2022-07-29T06:25:00;101679.74;;;21.69;67.44
22775;BME280;11554;51.106;3.684;2022-07-29T06:30:00;101680.93000000001;;;22.71;65.84
22775;BME280;11554;51.106;3.684;2022-07-29T06:35:00;101680.0;;;22.85;64.1
22775;BME280;11554;51.106;3.684;2022-07-29T06:40:00;101683.2;;;22.84;63.59
22775;BME280;11554;51.106;3.684;2022-07-29T06:45:00;101682.0;;;23.80;63.57
22775;BME280;11554;51.106;3.684;2022-07-29T06:50:00;101682.93;;;24.70;59.76
22775;BME280;11554;51.106;3.684;2022-07-29T06:55:00;101680.98999999999;;;24.77;57.84
22775;BME280;11554;51.106;3.684;2022-07-29T07:00:00;101692.1;;;24.07;58.93
22775;BME280;11554;51.106;3.684;2022-07-29T07:05:00;101695.53;;;25.65;58.46
22775;BME280;11554;51.106;3.684;2022-07-29T07:10:00;101688.89;;;25.07;56.55
22775;BME280;11554;51.106;3.684;2022-07-29T07:15:00;101697.14;;;25.85;56.66
22775;BME280;11554;51.106;3.684;2022-07-29T07:20:00;101704.72;;;26.56;53.82
22775;BME280;11554;51.106;3.684;2022-07-29T07:25:00;101706.5;;;26.42;55.64
22775;BME280;11554;51.106;3.684;2022-07-29T07:30:00;101707.3;;;25.96;55.27
22775;BME280;11554;51.106;3.684;2022-07-29T07:35:00;101708.08;;;24.79;56.6
22775;BME280;11554;51.106;3.684;2022-07-29T07:40:00;101711.06999999999;;;24.71;56.7
22775;BME280;11554;51.106;3.684;2022-07-29T07:45:00;101714.84;;;24.44;57.66
22775;BME280;11554;51.106;3.684;2022-07-29T07:50:00;101715.59999999999;;;24.63;58.99
22775;BME280;11554;51.106;3.684;2022-07-29T07:55:00;101713.79;;;25.99;55.85
22775;BME280;11554;51.106;3.684;2022-07-29T08:00:00;101713.15;;;24.85;58.2
22775;BME280;11554;51.106;3.684;2022-07-29T08:05:00;101709.14;;;25.41;58.12
22775;BME280;11554;51.106;3.684;2022-07-29T08:10:00;101711.91;;;26.28;55.53
22775;BME280;11554;51.106;3.684;2022-07-29T08:15:00;101714.0;;;25.95;54.64
22775;BME280;11554;51.106;3.684;2022-07-29T08:20:00;101716.72;;;25.65;56.33
22775;BME280;11554;51.106;3.684;2022-07-29T08:25:00;101715.77;;;26.23;55.25
22775;BME280;11554;51.106;3.684;2022-07-29T08:30:00;101716.72;;;26.91;54.42
22775;BME280;11554;51.106;3.684;2022-07-29T08:35:00;101719.55;;;27.62;53.88
22775;BME280;11554;51.106;3.684;2022-07-29T08:40:00;101716.03;;;28.32;52.17
22775;BME280;11554;51.106;3.684;2022-07-29T08:45:00;101716.83;;;29.05;50.38
22775;BME280;11554;51.106;3.684;2022-07-29T08:50:00;101724.21;;;28.19;50.34
22775;BME280;11554;51.106;3.684;2022-07-29T08:55:00;101718.65000000001;;;28.65;52.17
22775;BME280;11554;51.106;3.684;2022-07-29T09:00:00;101724.61;;;28.57;50.23
22775;BME280;11554;51.106;3.684;2022-07-29T09:05:00;101724.44;;;28.68;49.11
22775;BME280;11554;51.106;3.684;2022-07-29T09:10:00;101733.72;;;27.39;49.48
22775;BME280;11554;51.106;3.684;2022-07-29T09:15:00;101727.58;;;27.54;49.44
22775;BME280;11554;51.106;3.684;2022-07-29T09:20:02;101721.15;;;27.02;49.29
22775;BME280;11554;51.106;3.684;2022-07-29T09:25:00;101720.76;;;26.96;49.91
22775;BME280;11554;51.106;3.684;2022-07-29T09:30:00;101716.81999999999;;;27.04;50.54
22775;BME280;11554;51.106;3.684;2022-07-29T09:40:00;101721.03;;;27.98;49.0
22775;BME280;11554;51.106;3.684;2022-07-29T09:45:00;101725.37;;;27.99;49.14
22775;BME280;11554;51.106;3.684;2022-07-29T09:50:00;101723.55;;;28.11;48.95
22775;BME280;11554;51.106;3.684;2022-07-29T09:55:08;101716.8;;;27.84;47.55
22775;BME280;11554;51.106;3.684;2022-07-29T10:00:00;101722.78;;;27.91;48.05
22775;BME280;11554;51.106;3.684;2022-07-29T10:05:00;101717.69;;;27.24;48.13
22775;BME280;11554;51.106;3.684;2022-07-29T10:20:00;101710.47;;;28.42;45.49
22775;BME280;11554;51.106;3.684;2022-07-29T10:25:00;101704.42;;;28.42;47.19
22775;BME280;11554;51.106;3.684;2022-07-29T10:30:00;101705.53;;;29.17;44.37
22775;BME280;11554;51.106;3.684;2022-07-29T10:35:04;101709.7;;;29.55;43.66
22775;BME280;11554;51.106;3.684;2022-07-29T10:40:00;101709.63;;;30.05;43.62
22775;BME280;11554;51.106;3.684;2022-07-29T10:45:00;101710.51999999999;;;30.15;43.18
22775;BME280;11554;51.106;3.684;2022-07-29T10:50:00;101711.25;;;31.06;42.22
22775;BME280;11554;51.106;3.684;2022-07-29T10:55:00;101709.36;;;31.17;40.91
22775;BME280;11554;51.106;3.684;2022-07-29T11:05:00;101712.39;;;29.06;43.64
22775;BME280;11554;51.106;3.684;2022-07-29T11:15:00;101710.17;;;30.86;41.63
22775;BME280;11554;51.106;3.684;2022-07-29T11:30:00;101712.19;;;32.37;41.3
22775;BME280;11554;51.106;3.684;2022-07-29T11:45:00;101717.08;;;32.40;39.49
22775;BME280;11554;51.106;3.684;2022-07-29T11:50:00;101712.8;;;30.83;38.84
22775;BME280;11554;51.106;3.684;2022-07-29T11:55:01;101716.24;;;29.63;42.15
22775;BME280;11554;51.106;3.684;2022-07-29T12:00:00;101713.26000000001;;;29.43;41.56
22775;BME280;11554;51.106;3.684;2022-07-29T12:05:00;101715.84;;;30.39;41.26
22775;BME280;11554;51.106;3.684;2022-07-29T12:10:00;101708.76;;;31.22;41.48
22775;BME280;11554;51.106;3.684;2022-07-29T12:15:10;101710.83;;;32.13;41.74
22775;BME280;11554;51.106;3.684;2022-07-29T12:20:00;101723.1;;;32.45;38.23
22775;BME280;11554;51.106;3.684;2022-07-29T12:25:01;101721.04000000001;;;31.32;40.77
22775;BME280;11554;51.106;3.684;2022-07-29T12:30:01;101720.87;;;32.13;39.4
22775;BME280;11554;51.106;3.684;2022-07-29T12:35:02;101715.77;;;30.43;41.21
22775;BME280;11554;51.106;3.684;2022-07-29T12:40:00;101715.72;;;30.26;41.2
22775;BME280;11554;51.106;3.684;2022-07-29T12:45:00;101713.84000000001;;;30.05;42.86
22775;BME280;11554;51.106;3.684;2022-07-29T12:50:07;101707.92;;;30.57;45.15
22775;BME280;11554;51.106;3.684;2022-07-29T12:55:00;101714.87;;;29.66;43.7
22775;BME280;11554;51.106;3.684;2022-07-29T13:00:04;101714.53;;;30.02;44.71
22775;BME280;11554;51.106;3.684;2022-07-29T13:05:00;101718.73000000001;;;29.79;44.76
22775;BME280;11554;51.106;3.684;2022-07-29T13:15:00;101725.42;;;28.09;44.72
22775;BME280;11554;51.106;3.684;2022-07-29T13:20:04;101715.73;;;30.07;43.74
22775;BME280;11554;51.106;3.684;2022-07-29T13:25:00;101718.06;;;29.75;42.56
22775;BME280;11554;51.106;3.684;2022-07-29T13:30:00;101718.7;;;29.67;43.78
22775;BME280;11554;51.106;3.684;2022-07-29T13:35:00;101719.04;;;28.92;44.67
22775;BME280;11554;51.106;3.684;2022-07-29T13:40:00;101714.09;;;28.89;46.09
22775;BME280;11554;51.106;3.684;2022-07-29T13:45:00;101722.49;;;30.20;43.33
22775;BME280;11554;51.106;3.684;2022-07-29T13:50:00;101711.25;;;31.45;42.24
22775;BME280;11554;51.106;3.684;2022-07-29T13:55:00;101717.61;;;32.26;41.26
22775;BME280;11554;51.106;3.684;2022-07-29T14:00:00;101715.31;;;31.32;40.64
22775;BME280;11554;51.106;3.684;2022-07-29T14:05:00;101720.25;;;30.96;42.6
22775;BME280;11554;51.106;3.684;2022-07-29T14:10:00;101715.99;;;31.91;40.19
22775;BME280;11554;51.106;3.684;2022-07-29T14:15:00;101717.33;;;32.12;40.08
22775;BME280;11554;51.106;3.684;2022-07-29T14:20:00;101720.22;;;31.97;40.87
22775;BME280;11554;51.106;3.684;2022-07-29T14:25:00;101719.56999999999;;;31.95;39.48
22775;BME280;11554;51.106;3.684;2022-07-29T14:30:00;101720.51;;;30.12;40.96
22775;BME280;11554;51.106;3.684;2022-07-29T14:35:00;101723.94;;;30.50;42.03
22775;BME280;11554;51.106;3.684;2022-07-29T14:40:00;101726.87;;;30.35;41.88
22775;BME280;11554;51.106;3.684;2022-07-29T14:45:00;101724.47;;;30.58;42.03
22775;BME280;11554;51.106;3.684;2022-07-29T14:50:00;101720.73000000001;;;31.08;41.6
22775;BME280;11554;51.106;3.684;2022-07-29T14:55:00;101725.58;;;31.61;40.47
22775;BME280;11554;51.106;3.684;2022-07-29T15:00:00;101721.86;;;31.66;42.08
22775;BME280;11554;51.106;3.684;2022-07-29T15:05:00;101723.44;;;30.95;41.97
22775;BME280;11554;51.106;3.684;2022-07-29T15:10:01;101722.73;;;31.20;41.9
22775;BME280;11554;51.106;3.684;2022-07-29T15:15:00;101726.25;;;30.93;42.93
22775;BME280;11554;51.106;3.684;2022-07-29T15:20:00;101728.01;;;30.55;43.04
22775;BME280;11554;51.106;3.684;2022-07-29T15:25:00;101725.39;;;30.25;42.83
22775;BME280;11554;51.106;3.684;2022-07-29T15:30:00;101727.26;;;30.29;43.23
22775;BME280;11554;51.106;3.684;2022-07-29T15:35:00;101726.83;;;29.99;42.76
22775;BME280;11554;51.106;3.684;2022-07-29T15:40:00;101725.8;;;30.17;43.12
22775;BME280;11554;51.106;3.684;2022-07-29T15:45:00;101725.48000000001;;;29.65;42.85
22775;BME280;11554;51.106;3.684;2022-07-29T15:50:00;101724.8;;;30.14;43.3
22775;BME280;11554;51.106;3.684;2022-07-29T15:55:00;101723.24;;;30.12;42.68
22775;BME280;11554;51.106;3.684;2022-07-29T16:00:00;101726.23;;;30.09;42.13
22775;BME280;11554;51.106;3.684;2022-07-29T16:05:00;101727.36;;;30.37;42.06
22775;BME280;11554;51.106;3.684;2022-07-29T16:10:00;101724.3;;;29.85;42.56
22775;BME280;11554;51.106;3.684;2022-07-29T16:15:00;101731.88;;;29.33;42.52
22775;BME280;11554;51.106;3.684;2022-07-29T16:20:00;101742.61;;;29.16;43.34
22775;BME280;11554;51.106;3.684;2022-07-29T16:25:00;101747.52;;;29.05;43.74
22775;BME280;11554;51.106;3.684;2022-07-29T16:30:00;101744.09000000001;;;28.92;44.3
22775;BME280;11554;51.106;3.684;2022-07-29T16:35:00;101749.27;;;29.28;44.03
22775;BME280;11554;51.106;3.684;2022-07-29T16:40:00;101757.92;;;28.45;44.1
22775;BME280;11554;51.106;3.684;2022-07-29T16:45:00;101763.55;;;28.52;44.36
22775;BME280;11554;51.106;3.684;2022-07-29T16:50:00;101756.42;;;28.42;44.59
22775;BME280;11554;51.106;3.684;2022-07-29T16:55:00;101767.8;;;28.16;46.06
22775;BME280;11554;51.106;3.684;2022-07-29T17:00:00;101765.86;;;27.98;46.42
22775;BME280;11554;51.106;3.684;2022-07-29T17:05:00;101769.22;;;27.95;45.37
22775;BME280;11554;51.106;3.684;2022-07-29T17:10:00;101771.55;;;27.41;45.98
22775;BME280;11554;51.106;3.684;2022-07-29T17:15:00;101769.31;;;26.99;46.75
22775;BME280;11554;51.106;3.684;2022-07-29T17:20:00;101768.25;;;26.85;46.7
22775;BME280;11554;51.106;3.684;2022-07-29T17:25:00;101770.01000000001;;;26.99;47.25
22775;BME280;11554;51.106;3.684;2022-07-29T17:30:00;101769.56999999999;;;26.91;47.14
22775;BME280;11554;51.106;3.684;2022-07-29T17:35:00;101767.22;;;26.41;48.05
22775;BME280;11554;51.106;3.684;2022-07-29T17:40:00;101773.69;;;25.78;48.66
22775;BME280;11554;51.106;3.684;2022-07-29T17:45:00;101771.40000000001;;;25.62;48.99
22775;BME280;11554;51.106;3.684;2022-07-29T17:50:00;101773.19;;;25.21;49.52
22775;BME280;11554;51.106;3.684;2022-07-29T17:55:00;101771.57999999999;;;24.71;50.97
22775;BME280;11554;51.106;3.684;2022-07-29T18:00:00;101774.41;;;24.20;52.23
22775;BME280;11554;51.106;3.684;2022-07-29T18:05:00;101767.83;;;23.68;53.35
22775;BME280;11554;51.106;3.684;2022-07-29T18:10:00;101771.48;;;23.50;54.88
22775;BME280;11554;51.106;3.684;2022-07-29T18:15:00;101774.53;;;23.02;55.56
22775;BME280;11554;51.106;3.684;2022-07-29T18:20:00;101777.84;;;22.78;56.49
22775;BME280;11554;51.106;3.684;2022-07-29T18:25:00;101789.65;;;22.47;56.91
22775;BME280;11554;51.106;3.684;2022-07-29T18:30:00;101792.11;;;22.28;58.8
22775;BME280;11554;51.106;3.684;2022-07-29T18:35:00;101794.39;;;22.08;58.88
22775;BME280;11554;51.106;3.684;2022-07-29T18:40:00;101802.71;;;21.81;60.03
22775;BME280;11554;51.106;3.684;2022-07-29T18:45:00;101811.91;;;21.71;60.83
22775;BME280;11554;51.106;3.684;2022-07-29T18:50:00;101818.12999999999;;;21.46;63.07
22775;BME280;11554;51.106;3.684;2022-07-29T18:55:00;101833.65;;;21.32;63.35
22775;BME280;11554;51.106;3.684;2022-07-29T19:00:00;101844.8;;;21.15;64.39
22775;BME280;11554;51.106;3.684;2022-07-29T19:05:00;101846.47;;;21.01;66.8
22775;BME280;11554;51.106;3.684;2022-07-29T19:10:00;101854.65000000001;;;20.80;69.74
22775;BME280;11554;51.106;3.684;2022-07-29T19:15:00;101863.61;;;20.62;71.27
22775;BME280;11554;51.106;3.684;2022-07-29T19:20:00;101865.23;;;20.48;72.28
22775;BME280;11554;51.106;3.684;2022-07-29T19:25:00;101874.47;;;20.29;73.7
22775;BME280;11554;51.106;3.684;2022-07-29T19:30:00;101879.06;;;20.08;74.39
22775;BME280;11554;51.106;3.684;2022-07-29T19:35:00;101879.74;;;19.96;74.4
22775;BME280;11554;51.106;3.684;2022-07-29T19:40:00;101879.52;;;19.75;75.38
22775;BME280;11554;51.106;3.684;2022-07-29T19:45:00;101884.41;;;19.54;75.46
22775;BME280;11554;51.106;3.684;2022-07-29T19:50:00;101887.58;;;19.36;78.15
22775;BME280;11554;51.106;3.684;2022-07-29T19:55:00;101879.03;;;19.17;78.66
22775;BME280;11554;51.106;3.684;2022-07-29T20:00:00;101888.67;;;19.01;80.02
22775;BME280;11554;51.106;3.684;2022-07-29T20:05:00;101888.45;;;18.85;79.45
22775;BME280;11554;51.106;3.684;2022-07-29T20:10:00;101894.48;;;18.72;80.21
22775;BME280;11554;51.106;3.684;2022-07-29T20:15:00;101898.55;;;18.56;81.18
22775;BME280;11554;51.106;3.684;2022-07-29T20:20:00;101904.8;;;18.41;80.06
22775;BME280;11554;51.106;3.684;2022-07-29T20:25:00;101905.95;;;18.28;81.21
22775;BME280;11554;51.106;3.684;2022-07-29T20:30:00;101913.19;;;18.16;81.6
22775;BME280;11554;51.106;3.684;2022-07-29T20:35:00;101920.64;;;18.00;81.03
22775;BME280;11554;51.106;3.684;2022-07-29T20:40:00;101913.22;;;17.87;81.25
22775;BME280;11554;51.106;3.684;2022-07-29T20:45:00;101910.72;;;17.75;81.3
22775;BME280;11554;51.106;3.684;2022-07-29T20:50:00;101903.83;;;17.57;80.53
22775;BME280;11554;51.106;3.684;2022-07-29T20:55:00;101894.06;;;17.47;82.94
22775;BME280;11554;51.106;3.684;2022-07-29T21:00:00;101881.89;;;17.41;84.85
22775;BME280;11554;51.106;3.684;2022-07-29T21:05:00;101885.85;;;17.30;85.29
22775;BME280;11554;51.106;3.684;2022-07-29T21:10:00;101898.01999999999;;;17.15;83.89
22775;BME280;11554;51.106;3.684;2022-07-29T21:15:00;101901.62;;;16.98;83.4
22775;BME280;11554;51.106;3.684;2022-07-29T21:20:00;101903.83;;;16.80;83.85
22775;BME280;11554;51.106;3.684;2022-07-29T21:25:00;101906.84;;;16.66;83.49
22775;BME280;11554;51.106;3.684;2022-07-29T21:30:00;101912.41;;;16.63;84.83
22775;BME280;11554;51.106;3.684;2022-07-29T21:35:00;101918.14;;;16.58;86.37
22775;BME280;11554;51.106;3.684;2022-07-29T21:40:00;101925.95;;;16.41;85.04
22775;BME280;11554;51.106;3.684;2022-07-29T21:45:00;101924.7;;;16.37;87.37
22775;BME280;11554;51.106;3.684;2022-07-29T21:50:00;101930.92;;;16.27;86.21
22775;BME280;11554;51.106;3.684;2022-07-29T21:55:00;101923.68000000001;;;16.11;84.38
22775;BME280;11554;51.106;3.684;2022-07-29T22:00:00;101930.81;;;16.03;85.99
22775;BME280;11554;51.106;3.684;2022-07-29T22:05:00;101932.93;;;15.96;87.31
22775;BME280;11554;51.106;3.684;2022-07-29T22:10:00;101932.37000000001;;;15.86;86.31
22775;BME280;11554;51.106;3.684;2022-07-29T22:15:00;101928.98;;;15.84;89.27
22775;BME280;11554;51.106;3.684;2022-07-29T22:20:00;101924.59;;;15.72;87.6
22775;BME280;11554;51.106;3.684;2022-07-29T22:25:00;101924.77;;;15.56;87.88
22775;BME280;11554;51.106;3.684;2022-07-29T22:30:00;101925.56;;;15.49;87.09
22775;BME280;11554;51.106;3.684;2022-07-29T22:35:00;101929.9;;;15.35;87.72
22775;BME280;11554;51.106;3.684;2022-07-29T22:40:00;101936.49;;;15.22;86.75
22775;BME280;11554;51.106;3.684;2022-07-29T22:45:00;101928.58;;;15.26;90.74
22775;BME280;11554;51.106;3.684;2022-07-29T22:50:00;101923.0;;;15.35;93.95
22775;BME280;11554;51.106;3.684;2022-07-29T22:55:00;101930.98999999999;;;15.18;91.63
22775;BME280;11554;51.106;3.684;2022-07-29T23:00:00;101931.81;;;15.08;89.79
22775;BME280;11554;51.106;3.684;2022-07-29T23:05:00;101932.24;;;15.00;90.89
22775;BME280;11554;51.106;3.684;2022-07-29T23:10:00;101934.87;;;14.84;90.2
22775;BME280;11554;51.106;3.684;2022-07-29T23:15:00;101932.56;;;14.69;87.63
22775;BME280;11554;51.106;3.684;2022-07-29T23:20:00;101932.81;;;14.62;87.57
22775;BME280;11554;51.106;3.684;2022-07-29T23:25:00;101932.11;;;14.44;86.75
22775;BME280;11554;51.106;3.684;2022-07-29T23:30:00;101934.81;;;14.43;88.52
22775;BME280;11554;51.106;3.684;2022-07-29T23:35:00;101938.33;;;14.33;90.34
22775;BME280;11554;51.106;3.684;2022-07-29T23:40:00;101936.77;;;14.29;88.86
22775;BME280;11554;51.106;3.684;2022-07-29T23:45:00;101930.9;;;14.20;90.92
22775;BME280;11554;51.106;3.684;2022-07-29T23:50:00;101929.28;;;14.13;89.29
22775;BME280;11554;51.106;3.684;2022-07-29T23:55:00;101930.62999999999;;;14.06;89.65
